sensor_id;sensor_type;location;lat;lon;timestamp;pressure;altitude;pressure_sealevel;temperature;humidity
78121;BME280;67585;44.802;10.332;2023-09-30T00:00:12;101556.22;;;20.46;52.04
78121;BME280;67585;44.802;10.332;2023-09-30T00:02:38;101555.53;;;20.40;52.42
78121;BME280;67585;44.802;10.332;2023-09-30T00:05:04;101529.03;;;20.08;52.08
78121;BME280;67585;44.802;10.332;2023-09-30T00:07:29;101554.28;;;20.19;53.06
78121;BME280;67585;44.802;10.332;2023-09-30T00:09:55;101545.66;;;20.12;52.72
78121;BME280;67585;44.802;10.332;2023-09-30T00:12:20;101550.59;;;20.10;53.15
78121;BME280;67585;44.802;10.332;2023-09-30T00:14:45;101539.28;;;20.16;52.08
78121;BME280;67585;44.802;10.332;2023-09-30T00:17:13;101560.19;;;20.40;51.71
78121;BME280;67585;44.802;10.332;2023-09-30T00:19:40;101569.72;;;20.42;52.80
78121;BME280;67585;44.802;10.332;2023-09-30T00:22:05;101546.59;;;20.48;51.92
78121;BME280;67585;44.802;10.332;2023-09-30T00:24:30;101552.59;;;20.50;51.05
78121;BME280;67585;44.802;10.332;2023-09-30T00:26:56;101558.59;;;20.53;51.69
78121;BME280;67585;44.802;10.332;2023-09-30T00:29:21;101556.84;;;20.43;51.62
78121;BME280;67585;44.802;10.332;2023-09-30T00:31:47;101550.66;;;20.37;52.30
78121;BME280;67585;44.802;10.332;2023-09-30T00:34:13;101527.09;;;20.09;52.75
78121;BME280;67585;44.802;10.332;2023-09-30T00:36:38;101540.53;;;20.38;51.57
78121;BME280;67585;44.802;10.332;2023-09-30T00:39:04;101540.06;;;20.17;51.98
78121;BME280;67585;44.802;10.332;2023-09-30T00:41:29;101531.78;;;20.08;52.38
78121;BME280;67585;44.802;10.332;2023-09-30T00:43:55;101535.88;;;19.92;53.02
78121;BME280;67585;44.802;10.332;2023-09-30T00:46:31;101524.47;;;20.03;52.51
78121;BME280;67585;44.802;10.332;2023-09-30T00:48:59;101543.66;;;20.17;51.58
78121;BME280;67585;44.802;10.332;2023-09-30T00:51:26;101538.41;;;20.35;51.81
78121;BME280;67585;44.802;10.332;2023-09-30T00:53:53;101526.81;;;20.10;51.94
78121;BME280;67585;44.802;10.332;2023-09-30T00:56:19;101558.38;;;20.35;51.94
78121;BME280;67585;44.802;10.332;2023-09-30T00:58:45;101565.25;;;20.33;52.22
78121;BME280;67585;44.802;10.332;2023-09-30T01:01:11;101559.47;;;20.20;51.88
78121;BME280;67585;44.802;10.332;2023-09-30T01:03:37;101556.81;;;20.15;52.25
78121;BME280;67585;44.802;10.332;2023-09-30T01:06:02;101555.13;;;20.33;51.47
78121;BME280;67585;44.802;10.332;2023-09-30T01:08:28;101546.06;;;20.19;52.07
78121;BME280;67585;44.802;10.332;2023-09-30T01:10:54;101545.56;;;20.17;52.26
78121;BME280;67585;44.802;10.332;2023-09-30T01:13:20;101560.38;;;20.30;52.24
78121;BME280;67585;44.802;10.332;2023-09-30T01:15:45;101533.50;;;20.18;51.73
78121;BME280;67585;44.802;10.332;2023-09-30T01:18:12;101559.13;;;20.22;52.60
78121;BME280;67585;44.802;10.332;2023-09-30T01:20:37;101554.88;;;20.16;52.61
78121;BME280;67585;44.802;10.332;2023-09-30T01:23:03;101550.41;;;20.06;52.24
78121;BME280;67585;44.802;10.332;2023-09-30T01:25:29;101550.63;;;20.23;51.98
78121;BME280;67585;44.802;10.332;2023-09-30T01:27:55;101550.53;;;20.28;51.83
78121;BME280;67585;44.802;10.332;2023-09-30T01:30:20;101551.03;;;20.17;52.51
78121;BME280;67585;44.802;10.332;2023-09-30T01:32:48;101543.94;;;20.16;52.71
78121;BME280;67585;44.802;10.332;2023-09-30T01:35:13;101540.34;;;20.01;52.51
78121;BME280;67585;44.802;10.332;2023-09-30T01:37:39;101537.91;;;20.00;53.06
78121;BME280;67585;44.802;10.332;2023-09-30T01:40:05;101536.25;;;20.18;52.66
78121;BME280;67585;44.802;10.332;2023-09-30T01:42:33;101536.75;;;20.34;51.94
78121;BME280;67585;44.802;10.332;2023-09-30T01:44:58;101553.19;;;20.34;52.47
78121;BME280;67585;44.802;10.332;2023-09-30T01:47:24;101544.66;;;20.21;53.29
78121;BME280;67585;44.802;10.332;2023-09-30T01:49:49;101543.53;;;20.09;54.05
78121;BME280;67585;44.802;10.332;2023-09-30T01:52:15;101545.78;;;20.20;54.00
78121;BME280;67585;44.802;10.332;2023-09-30T01:54:40;101529.75;;;20.14;52.97
78121;BME280;67585;44.802;10.332;2023-09-30T01:57:06;101547.28;;;20.26;53.03
78121;BME280;67585;44.802;10.332;2023-09-30T01:59:31;101553.97;;;20.20;54.04
78121;BME280;67585;44.802;10.332;2023-09-30T02:01:56;101548.75;;;19.91;54.04
78121;BME280;67585;44.802;10.332;2023-09-30T02:04:22;101541.47;;;19.68;55.15
78121;BME280;67585;44.802;10.332;2023-09-30T02:06:48;101542.03;;;19.64;55.47
78121;BME280;67585;44.802;10.332;2023-09-30T02:09:13;101543.00;;;19.55;55.56
78121;BME280;67585;44.802;10.332;2023-09-30T02:11:39;101525.47;;;19.56;56.01
78121;BME280;67585;44.802;10.332;2023-09-30T02:14:07;101533.25;;;19.68;55.04
78121;BME280;67585;44.802;10.332;2023-09-30T02:16:32;101532.09;;;19.74;55.61
78121;BME280;67585;44.802;10.332;2023-09-30T02:18:58;101532.50;;;19.62;55.97
78121;BME280;67585;44.802;10.332;2023-09-30T02:21:24;101533.69;;;19.37;56.14
78121;BME280;67585;44.802;10.332;2023-09-30T02:23:49;101515.75;;;19.31;56.14
78121;BME280;67585;44.802;10.332;2023-09-30T02:26:16;101537.47;;;19.41;56.74
78121;BME280;67585;44.802;10.332;2023-09-30T02:28:42;101506.06;;;19.19;56.56
78121;BME280;67585;44.802;10.332;2023-09-30T02:31:08;101530.44;;;19.54;55.63
78121;BME280;67585;44.802;10.332;2023-09-30T02:33:33;101527.78;;;19.49;55.72
78121;BME280;67585;44.802;10.332;2023-09-30T02:36:01;101522.47;;;19.38;56.33
78121;BME280;67585;44.802;10.332;2023-09-30T02:38:26;101537.00;;;19.34;56.69
78121;BME280;67585;44.802;10.332;2023-09-30T02:40:54;101533.19;;;19.35;56.67
78121;BME280;67585;44.802;10.332;2023-09-30T02:43:19;101539.47;;;19.35;56.32
78121;BME280;67585;44.802;10.332;2023-09-30T02:45:45;101530.38;;;19.40;56.49
78121;BME280;67585;44.802;10.332;2023-09-30T02:48:11;101520.94;;;19.32;56.53
78121;BME280;67585;44.802;10.332;2023-09-30T02:50:37;101528.91;;;19.29;56.12
78121;BME280;67585;44.802;10.332;2023-09-30T02:53:02;101523.59;;;19.37;56.42
78121;BME280;67585;44.802;10.332;2023-09-30T02:55:28;101512.22;;;19.30;56.13
78121;BME280;67585;44.802;10.332;2023-09-30T02:57:53;101521.31;;;19.26;56.19
78121;BME280;67585;44.802;10.332;2023-09-30T03:00:18;101541.34;;;19.54;56.42
78121;BME280;67585;44.802;10.332;2023-09-30T03:02:54;101525.19;;;19.38;56.17
78121;BME280;67585;44.802;10.332;2023-09-30T03:05:20;101524.69;;;19.36;55.95
78121;BME280;67585;44.802;10.332;2023-09-30T03:07:46;101526.53;;;19.41;55.95
78121;BME280;67585;44.802;10.332;2023-09-30T03:10:11;101521.59;;;19.43;56.01
78121;BME280;67585;44.802;10.332;2023-09-30T03:12:39;101514.56;;;19.37;56.29
78121;BME280;67585;44.802;10.332;2023-09-30T03:15:05;101489.41;;;19.21;57.05
78121;BME280;67585;44.802;10.332;2023-09-30T03:17:31;101512.75;;;19.32;56.70
78121;BME280;67585;44.802;10.332;2023-09-30T03:19:58;101501.41;;;19.39;57.05
78121;BME280;67585;44.802;10.332;2023-09-30T03:22:24;101505.25;;;19.57;56.05
78121;BME280;67585;44.802;10.332;2023-09-30T03:24:49;101486.44;;;19.36;55.95
78121;BME280;67585;44.802;10.332;2023-09-30T03:27:14;101499.03;;;19.51;55.87
78121;BME280;67585;44.802;10.332;2023-09-30T03:29:43;101503.63;;;19.37;56.68
78121;BME280;67585;44.802;10.332;2023-09-30T03:32:08;101505.63;;;19.31;56.31
78121;BME280;67585;44.802;10.332;2023-09-30T03:34:34;101505.44;;;19.28;57.03
78121;BME280;67585;44.802;10.332;2023-09-30T03:37:01;101510.38;;;19.45;55.76
78121;BME280;67585;44.802;10.332;2023-09-30T03:39:27;101513.09;;;19.26;56.45
78121;BME280;67585;44.802;10.332;2023-09-30T03:41:54;101518.50;;;19.31;56.21
78121;BME280;67585;44.802;10.332;2023-09-30T03:44:21;101509.03;;;19.23;56.36
78121;BME280;67585;44.802;10.332;2023-09-30T03:46:48;101515.09;;;19.20;56.86
78121;BME280;67585;44.802;10.332;2023-09-30T03:49:13;101523.16;;;19.30;56.88
78121;BME280;67585;44.802;10.332;2023-09-30T03:51:38;101526.31;;;19.18;56.86
78121;BME280;67585;44.802;10.332;2023-09-30T03:54:04;101524.31;;;19.24;56.25
78121;BME280;67585;44.802;10.332;2023-09-30T03:56:31;101537.59;;;19.12;56.73
78121;BME280;67585;44.802;10.332;2023-09-30T03:58:56;101529.34;;;19.17;56.98
78121;BME280;67585;44.802;10.332;2023-09-30T04:01:21;101529.47;;;19.07;56.67
78121;BME280;67585;44.802;10.332;2023-09-30T04:03:48;101533.41;;;19.00;56.99
78121;BME280;67585;44.802;10.332;2023-09-30T04:06:14;101534.50;;;18.99;57.83
78121;BME280;67585;44.802;10.332;2023-09-30T04:08:40;101525.63;;;19.08;56.88
78121;BME280;67585;44.802;10.332;2023-09-30T04:11:05;101518.28;;;19.08;56.80
78121;BME280;67585;44.802;10.332;2023-09-30T04:13:31;101525.88;;;19.11;56.81
78121;BME280;67585;44.802;10.332;2023-09-30T04:15:58;101532.66;;;19.14;56.60
78121;BME280;67585;44.802;10.332;2023-09-30T04:18:24;101527.84;;;19.25;56.04
78121;BME280;67585;44.802;10.332;2023-09-30T04:20:51;101503.22;;;19.11;56.81
78121;BME280;67585;44.802;10.332;2023-09-30T04:23:17;101519.88;;;19.09;56.29
78121;BME280;67585;44.802;10.332;2023-09-30T04:25:45;101520.03;;;18.99;56.52
78121;BME280;67585;44.802;10.332;2023-09-30T04:28:12;101518.91;;;19.00;56.61
78121;BME280;67585;44.802;10.332;2023-09-30T04:30:37;101532.44;;;19.10;57.00
78121;BME280;67585;44.802;10.332;2023-09-30T04:33:03;101525.22;;;19.00;57.26
78121;BME280;67585;44.802;10.332;2023-09-30T04:35:30;101529.41;;;19.12;56.21
78121;BME280;67585;44.802;10.332;2023-09-30T04:37:56;101527.63;;;19.02;56.88
78121;BME280;67585;44.802;10.332;2023-09-30T04:40:22;101520.56;;;19.01;57.25
78121;BME280;67585;44.802;10.332;2023-09-30T04:42:48;101530.06;;;19.04;57.20
78121;BME280;67585;44.802;10.332;2023-09-30T04:45:14;101526.00;;;19.01;56.57
78121;BME280;67585;44.802;10.332;2023-09-30T04:47:45;101525.09;;;18.87;57.22
78121;BME280;67585;44.802;10.332;2023-09-30T04:50:11;101530.22;;;18.93;57.09
78121;BME280;67585;44.802;10.332;2023-09-30T04:52:37;101536.78;;;19.11;56.39
78121;BME280;67585;44.802;10.332;2023-09-30T04:55:04;101531.53;;;18.96;56.68
78121;BME280;67585;44.802;10.332;2023-09-30T04:57:30;101517.19;;;18.85;57.67
78121;BME280;67585;44.802;10.332;2023-09-30T04:59:55;101524.56;;;18.85;57.62
78121;BME280;67585;44.802;10.332;2023-09-30T05:02:23;101506.00;;;18.87;57.21
78121;BME280;67585;44.802;10.332;2023-09-30T05:04:48;101522.03;;;18.93;57.01
78121;BME280;67585;44.802;10.332;2023-09-30T05:07:13;101520.25;;;18.84;57.44
78121;BME280;67585;44.802;10.332;2023-09-30T05:09:39;101525.47;;;18.75;56.95
78121;BME280;67585;44.802;10.332;2023-09-30T05:12:04;101531.81;;;18.94;56.60
78121;BME280;67585;44.802;10.332;2023-09-30T05:14:31;101547.78;;;19.06;56.85
78121;BME280;67585;44.802;10.332;2023-09-30T05:16:56;101546.53;;;18.98;56.99
78121;BME280;67585;44.802;10.332;2023-09-30T05:19:22;101540.75;;;19.00;57.03
78121;BME280;67585;44.802;10.332;2023-09-30T05:21:47;101540.88;;;18.90;57.28
78121;BME280;67585;44.802;10.332;2023-09-30T05:24:14;101552.13;;;19.07;56.43
78121;BME280;67585;44.802;10.332;2023-09-30T05:26:39;101546.28;;;18.95;57.06
78121;BME280;67585;44.802;10.332;2023-09-30T05:29:05;101534.41;;;19.05;56.81
78121;BME280;67585;44.802;10.332;2023-09-30T05:31:31;101554.72;;;18.98;56.63
78121;BME280;67585;44.802;10.332;2023-09-30T05:33:57;101558.75;;;18.82;56.92
78121;BME280;67585;44.802;10.332;2023-09-30T05:36:22;101556.06;;;19.01;56.43
78121;BME280;67585;44.802;10.332;2023-09-30T05:38:48;101568.19;;;18.90;56.74
78121;BME280;67585;44.802;10.332;2023-09-30T05:41:16;101561.44;;;19.06;56.84
78121;BME280;67585;44.802;10.332;2023-09-30T05:43:42;101560.75;;;18.95;56.56
78121;BME280;67585;44.802;10.332;2023-09-30T05:46:08;101576.09;;;18.91;56.93
78121;BME280;67585;44.802;10.332;2023-09-30T05:48:34;101566.97;;;19.01;56.95
78121;BME280;67585;44.802;10.332;2023-09-30T05:50:59;101567.44;;;19.27;55.81
78121;BME280;67585;44.802;10.332;2023-09-30T05:53:25;101578.75;;;19.20;56.23
78121;BME280;67585;44.802;10.332;2023-09-30T05:55:52;101582.72;;;19.28;56.76
78121;BME280;67585;44.802;10.332;2023-09-30T05:58:18;101573.19;;;19.07;56.61
78121;BME280;67585;44.802;10.332;2023-09-30T06:00:44;101581.03;;;19.13;56.46
78121;BME280;67585;44.802;10.332;2023-09-30T06:03:10;101562.66;;;18.95;56.54
78121;BME280;67585;44.802;10.332;2023-09-30T06:05:40;101578.63;;;19.07;57.47
78121;BME280;67585;44.802;10.332;2023-09-30T06:08:05;101578.22;;;19.18;56.32
78121;BME280;67585;44.802;10.332;2023-09-30T06:10:34;101574.13;;;18.97;57.06
78121;BME280;67585;44.802;10.332;2023-09-30T06:13:00;101583.03;;;19.03;57.38
78121;BME280;67585;44.802;10.332;2023-09-30T06:15:27;101591.03;;;18.99;57.55
78121;BME280;67585;44.802;10.332;2023-09-30T06:17:54;101583.03;;;19.03;56.71
78121;BME280;67585;44.802;10.332;2023-09-30T06:20:20;101571.50;;;18.87;56.90
78121;BME280;67585;44.802;10.332;2023-09-30T06:22:48;101589.38;;;18.98;56.94
78121;BME280;67585;44.802;10.332;2023-09-30T06:25:17;101581.75;;;19.19;56.33
78121;BME280;67585;44.802;10.332;2023-09-30T06:27:47;101591.06;;;19.37;55.82
78121;BME280;67585;44.802;10.332;2023-09-30T06:30:15;101591.28;;;19.21;56.52
78121;BME280;67585;44.802;10.332;2023-09-30T06:32:41;101584.50;;;19.19;56.24
78121;BME280;67585;44.802;10.332;2023-09-30T06:35:07;101607.38;;;19.23;57.03
78121;BME280;67585;44.802;10.332;2023-09-30T06:37:36;101590.66;;;19.30;56.54
78121;BME280;67585;44.802;10.332;2023-09-30T06:40:04;101603.72;;;19.52;55.61
78121;BME280;67585;44.802;10.332;2023-09-30T06:42:30;101602.13;;;19.27;56.36
78121;BME280;67585;44.802;10.332;2023-09-30T06:44:56;101591.41;;;19.11;56.88
78121;BME280;67585;44.802;10.332;2023-09-30T06:47:21;101599.50;;;19.40;55.97
78121;BME280;67585;44.802;10.332;2023-09-30T06:49:47;101597.59;;;19.60;55.48
78121;BME280;67585;44.802;10.332;2023-09-30T06:52:13;101588.22;;;19.66;55.25
78121;BME280;67585;44.802;10.332;2023-09-30T06:54:38;101593.59;;;19.52;55.71
78121;BME280;67585;44.802;10.332;2023-09-30T06:57:04;101583.28;;;19.68;54.95
78121;BME280;67585;44.802;10.332;2023-09-30T06:59:29;101566.41;;;19.80;54.97
78121;BME280;67585;44.802;10.332;2023-09-30T07:01:57;101579.06;;;20.09;54.51
78121;BME280;67585;44.802;10.332;2023-09-30T07:04:22;101567.94;;;20.19;54.01
78121;BME280;67585;44.802;10.332;2023-09-30T07:06:47;101576.34;;;20.55;53.08
78121;BME280;67585;44.802;10.332;2023-09-30T07:09:13;101585.09;;;20.71;52.44
78121;BME280;67585;44.802;10.332;2023-09-30T07:11:38;101557.91;;;21.02;51.33
78121;BME280;67585;44.802;10.332;2023-09-30T07:14:04;101548.31;;;21.41;50.85
78121;BME280;67585;44.802;10.332;2023-09-30T07:16:30;101590.09;;;21.83;50.30
78121;BME280;67585;44.802;10.332;2023-09-30T07:18:55;101585.97;;;22.17;49.34
78121;BME280;67585;44.802;10.332;2023-09-30T07:21:20;101579.22;;;22.23;48.08
78121;BME280;67585;44.802;10.332;2023-09-30T07:23:46;101594.16;;;22.71;47.52
78121;BME280;67585;44.802;10.332;2023-09-30T07:26:13;101599.44;;;22.98;46.29
78121;BME280;67585;44.802;10.332;2023-09-30T07:28:38;101611.16;;;23.21;46.05
78121;BME280;67585;44.802;10.332;2023-09-30T07:31:03;101596.97;;;22.79;46.27
78121;BME280;67585;44.802;10.332;2023-09-30T07:33:29;101623.13;;;23.17;45.89
78121;BME280;67585;44.802;10.332;2023-09-30T07:35:55;101613.16;;;23.73;44.43
78121;BME280;67585;44.802;10.332;2023-09-30T07:38:21;101595.31;;;23.44;45.40
78121;BME280;67585;44.802;10.332;2023-09-30T07:40:47;101610.25;;;23.70;44.77
78121;BME280;67585;44.802;10.332;2023-09-30T07:43:14;101605.91;;;23.77;44.07
78121;BME280;67585;44.802;10.332;2023-09-30T07:45:39;101596.00;;;23.85;44.38
78121;BME280;67585;44.802;10.332;2023-09-30T07:48:07;101612.75;;;24.36;43.37
78121;BME280;67585;44.802;10.332;2023-09-30T07:50:35;101623.84;;;24.74;41.71
78121;BME280;67585;44.802;10.332;2023-09-30T07:53:00;101623.84;;;24.74;41.83
78121;BME280;67585;44.802;10.332;2023-09-30T07:55:26;101635.09;;;24.90;41.77
78121;BME280;67585;44.802;10.332;2023-09-30T07:57:51;101624.25;;;24.93;41.65
78121;BME280;67585;44.802;10.332;2023-09-30T08:00:20;101624.75;;;25.25;41.75
78121;BME280;67585;44.802;10.332;2023-09-30T08:02:46;101625.41;;;25.43;41.03
78121;BME280;67585;44.802;10.332;2023-09-30T08:05:12;101636.97;;;25.07;41.46
78121;BME280;67585;44.802;10.332;2023-09-30T08:07:38;101647.19;;;25.06;41.16
78121;BME280;67585;44.802;10.332;2023-09-30T08:10:03;101640.22;;;25.38;40.50
78121;BME280;67585;44.802;10.332;2023-09-30T08:12:30;101655.38;;;25.53;40.26
78121;BME280;67585;44.802;10.332;2023-09-30T08:14:55;101630.09;;;25.22;40.54
78121;BME280;67585;44.802;10.332;2023-09-30T08:17:21;101642.38;;;25.33;40.25
78121;BME280;67585;44.802;10.332;2023-09-30T08:19:46;101641.66;;;25.45;40.27
78121;BME280;67585;44.802;10.332;2023-09-30T08:22:13;101647.50;;;25.64;39.98
78121;BME280;67585;44.802;10.332;2023-09-30T08:24:39;101635.72;;;25.97;39.17
78121;BME280;67585;44.802;10.332;2023-09-30T08:27:04;101626.81;;;26.12;39.39
78121;BME280;67585;44.802;10.332;2023-09-30T08:29:34;101637.50;;;25.80;39.98
78121;BME280;67585;44.802;10.332;2023-09-30T08:32:01;101638.84;;;25.95;40.11
78121;BME280;67585;44.802;10.332;2023-09-30T08:34:28;101646.91;;;26.00;39.67
78121;BME280;67585;44.802;10.332;2023-09-30T08:36:54;101645.59;;;26.19;39.77
78121;BME280;67585;44.802;10.332;2023-09-30T08:39:19;101651.97;;;26.32;39.04
78121;BME280;67585;44.802;10.332;2023-09-30T08:41:45;101642.81;;;26.19;39.29
78121;BME280;67585;44.802;10.332;2023-09-30T08:44:11;101646.50;;;26.11;39.50
78121;BME280;67585;44.802;10.332;2023-09-30T08:46:39;101659.81;;;26.42;39.48
78121;BME280;67585;44.802;10.332;2023-09-30T08:49:05;101660.97;;;26.99;38.07
78121;BME280;67585;44.802;10.332;2023-09-30T08:51:34;101660.59;;;26.76;38.85
78121;BME280;67585;44.802;10.332;2023-09-30T08:54:01;101665.81;;;26.90;38.16
78121;BME280;67585;44.802;10.332;2023-09-30T08:56:30;101666.16;;;26.88;38.78
78121;BME280;67585;44.802;10.332;2023-09-30T08:58:59;101650.97;;;26.49;39.41
78121;BME280;67585;44.802;10.332;2023-09-30T09:01:29;101647.66;;;26.55;39.56
78121;BME280;67585;44.802;10.332;2023-09-30T09:03:56;101648.63;;;26.84;39.64
78121;BME280;67585;44.802;10.332;2023-09-30T09:06:22;101648.16;;;27.43;38.73
78121;BME280;67585;44.802;10.332;2023-09-30T09:08:48;101640.22;;;27.17;38.78
78121;BME280;67585;44.802;10.332;2023-09-30T09:11:14;101646.47;;;27.02;38.96
78121;BME280;67585;44.802;10.332;2023-09-30T09:13:48;101638.69;;;27.44;37.95
78121;BME280;67585;44.802;10.332;2023-09-30T09:16:15;101651.47;;;27.61;37.67
78121;BME280;67585;44.802;10.332;2023-09-30T09:18:42;101652.88;;;27.06;38.21
78121;BME280;67585;44.802;10.332;2023-09-30T09:21:11;101664.13;;;27.87;38.21
78121;BME280;67585;44.802;10.332;2023-09-30T09:23:40;101636.06;;;27.23;38.92
78121;BME280;67585;44.802;10.332;2023-09-30T09:26:06;101649.31;;;27.18;38.76
78121;BME280;67585;44.802;10.332;2023-09-30T09:28:36;101657.09;;;27.77;38.02
78121;BME280;67585;44.802;10.332;2023-09-30T09:31:19;101645.53;;;26.98;39.65
78121;BME280;67585;44.802;10.332;2023-09-30T09:33:45;101626.97;;;27.11;39.18
78121;BME280;67585;44.802;10.332;2023-09-30T09:36:10;101637.56;;;27.33;38.83
78121;BME280;67585;44.802;10.332;2023-09-30T09:38:49;101657.41;;;27.88;38.00
78121;BME280;67585;44.802;10.332;2023-09-30T09:41:18;101657.84;;;27.13;39.96
78121;BME280;67585;44.802;10.332;2023-09-30T09:43:43;101641.25;;;27.78;38.65
78121;BME280;67585;44.802;10.332;2023-09-30T09:46:10;101638.88;;;27.64;38.86
78121;BME280;67585;44.802;10.332;2023-09-30T09:48:37;101637.25;;;28.03;38.00
78121;BME280;67585;44.802;10.332;2023-09-30T09:51:04;101643.44;;;28.12;37.91
78121;BME280;67585;44.802;10.332;2023-09-30T09:53:35;101646.78;;;27.90;38.54
78121;BME280;67585;44.802;10.332;2023-09-30T09:56:04;101640.78;;;27.88;38.78
78121;BME280;67585;44.802;10.332;2023-09-30T09:58:33;101644.09;;;28.22;37.77
78121;BME280;67585;44.802;10.332;2023-09-30T10:01:01;101637.13;;;28.72;37.49
78121;BME280;67585;44.802;10.332;2023-09-30T10:03:26;101634.25;;;28.52;37.76
78121;BME280;67585;44.802;10.332;2023-09-30T10:05:52;101623.78;;;28.18;37.77
78121;BME280;67585;44.802;10.332;2023-09-30T10:08:20;101618.56;;;28.92;36.40
78121;BME280;67585;44.802;10.332;2023-09-30T10:10:47;101627.19;;;28.55;37.32
78121;BME280;67585;44.802;10.332;2023-09-30T10:21:38;101629.69;;;29.63;34.46
78121;BME280;67585;44.802;10.332;2023-09-30T10:29:48;101620.81;;;28.86;35.72
78121;BME280;67585;44.802;10.332;2023-09-30T10:32:18;101624.56;;;29.45;35.57
78121;BME280;67585;44.802;10.332;2023-09-30T10:34:50;101642.34;;;28.93;36.36
78121;BME280;67585;44.802;10.332;2023-09-30T10:37:24;101637.44;;;29.02;36.31
78121;BME280;67585;44.802;10.332;2023-09-30T10:40:00;101650.69;;;29.44;36.13
78121;BME280;67585;44.802;10.332;2023-09-30T10:42:47;101646.53;;;29.89;33.60
78121;BME280;67585;44.802;10.332;2023-09-30T10:50:52;101635.22;;;29.63;34.11
78121;BME280;67585;44.802;10.332;2023-09-30T10:53:19;101633.84;;;29.17;34.40
78121;BME280;67585;44.802;10.332;2023-09-30T10:55:45;101623.47;;;29.50;33.34
78121;BME280;67585;44.802;10.332;2023-09-30T10:58:12;101628.91;;;29.81;32.87
78121;BME280;67585;44.802;10.332;2023-09-30T11:00:37;101626.78;;;28.88;34.61
78121;BME280;67585;44.802;10.332;2023-09-30T11:03:04;101624.94;;;29.08;33.81
78121;BME280;67585;44.802;10.332;2023-09-30T11:05:31;101610.19;;;28.72;35.31
78121;BME280;67585;44.802;10.332;2023-09-30T11:08:02;101616.56;;;28.45;36.35
78121;BME280;67585;44.802;10.332;2023-09-30T11:10:28;101596.03;;;27.86;37.44
78121;BME280;67585;44.802;10.332;2023-09-30T11:12:57;101605.75;;;28.40;36.37
78121;BME280;67585;44.802;10.332;2023-09-30T11:15:23;101597.75;;;28.66;36.19
78121;BME280;67585;44.802;10.332;2023-09-30T11:17:51;101584.78;;;29.41;34.70
78121;BME280;67585;44.802;10.332;2023-09-30T11:20:17;101586.28;;;29.54;33.58
78121;BME280;67585;44.802;10.332;2023-09-30T11:22:44;101574.63;;;29.88;33.15
78121;BME280;67585;44.802;10.332;2023-09-30T11:25:19;101568.59;;;30.05;32.68
78121;BME280;67585;44.802;10.332;2023-09-30T11:27:45;101574.09;;;30.01;33.44
78121;BME280;67585;44.802;10.332;2023-09-30T11:30:12;101561.31;;;29.74;33.29
78121;BME280;67585;44.802;10.332;2023-09-30T11:32:38;101570.00;;;30.15;32.66
78121;BME280;67585;44.802;10.332;2023-09-30T11:35:09;101568.44;;;29.75;33.37
78121;BME280;67585;44.802;10.332;2023-09-30T11:37:35;101561.56;;;29.30;33.78
78121;BME280;67585;44.802;10.332;2023-09-30T11:40:11;101552.50;;;29.13;34.62
78121;BME280;67585;44.802;10.332;2023-09-30T11:42:38;101547.47;;;28.84;34.93
78121;BME280;67585;44.802;10.332;2023-09-30T11:45:18;101538.34;;;29.18;34.81
78121;BME280;67585;44.802;10.332;2023-09-30T11:47:44;101532.66;;;29.70;32.79
78121;BME280;67585;44.802;10.332;2023-09-30T11:50:10;101533.41;;;29.90;32.83
78121;BME280;67585;44.802;10.332;2023-09-30T11:52:36;101547.41;;;29.54;34.16
78121;BME280;67585;44.802;10.332;2023-09-30T11:55:05;101527.50;;;29.91;32.53
78121;BME280;67585;44.802;10.332;2023-09-30T11:57:30;101513.09;;;29.86;33.65
78121;BME280;67585;44.802;10.332;2023-09-30T11:59:56;101520.16;;;30.26;33.25
78121;BME280;67585;44.802;10.332;2023-09-30T12:02:21;101507.22;;;29.48;34.04
78121;BME280;67585;44.802;10.332;2023-09-30T12:04:46;101537.78;;;28.77;34.84
78121;BME280;67585;44.802;10.332;2023-09-30T12:07:12;101526.31;;;28.60;33.79
78121;BME280;67585;44.802;10.332;2023-09-30T12:09:38;101531.31;;;29.44;33.27
78121;BME280;67585;44.802;10.332;2023-09-30T12:12:05;101527.81;;;29.28;32.56
78121;BME280;67585;44.802;10.332;2023-09-30T12:14:34;101521.66;;;29.57;32.93
78121;BME280;67585;44.802;10.332;2023-09-30T12:17:00;101520.03;;;29.56;32.32
78121;BME280;67585;44.802;10.332;2023-09-30T12:19:25;101520.78;;;29.73;32.55
78121;BME280;67585;44.802;10.332;2023-09-30T12:21:52;101516.16;;;29.61;32.58
78121;BME280;67585;44.802;10.332;2023-09-30T12:24:18;101517.41;;;29.83;31.32
78121;BME280;67585;44.802;10.332;2023-09-30T12:26:48;101528.16;;;29.65;32.09
78121;BME280;67585;44.802;10.332;2023-09-30T12:29:15;101530.31;;;28.97;32.04
78121;BME280;67585;44.802;10.332;2023-09-30T12:31:44;101516.56;;;28.85;33.21
78121;BME280;67585;44.802;10.332;2023-09-30T12:34:11;101511.03;;;29.05;32.69
78121;BME280;67585;44.802;10.332;2023-09-30T12:36:36;101522.53;;;29.03;32.88
78121;BME280;67585;44.802;10.332;2023-09-30T12:39:02;101504.94;;;29.54;31.66
78121;BME280;67585;44.802;10.332;2023-09-30T12:41:36;101512.56;;;29.18;32.70
78121;BME280;67585;44.802;10.332;2023-09-30T12:44:02;101511.59;;;29.30;32.52
78121;BME280;67585;44.802;10.332;2023-09-30T12:46:27;101494.94;;;28.75;33.75
78121;BME280;67585;44.802;10.332;2023-09-30T12:48:53;101505.78;;;28.64;33.86
78121;BME280;67585;44.802;10.332;2023-09-30T12:51:20;101511.09;;;28.38;33.53
78121;BME280;67585;44.802;10.332;2023-09-30T12:53:45;101518.16;;;28.51;34.25
78121;BME280;67585;44.802;10.332;2023-09-30T12:56:10;101513.56;;;28.74;33.69